sensor_id;sensor_type;location;lat;lon;timestamp;pressure;altitude;pressure_sealevel;temperature;humidity
64551;BME280;50945;44.472;-123.352;2023-03-04T00:00:01;100156.56;;;6.32;82.16
64551;BME280;50945;44.472;-123.352;2023-03-04T00:02:28;100156.91;;;6.29;82.41
64551;BME280;50945;44.472;-123.352;2023-03-04T00:04:54;100147.72;;;6.22;81.80
64551;BME280;50945;44.472;-123.352;2023-03-04T00:07:20;100134.94;;;6.14;80.89
64551;BME280;50945;44.472;-123.352;2023-03-04T00:09:47;100134.09;;;6.14;81.66
64551;BME280;50945;44.472;-123.352;2023-03-04T00:12:13;100128.28;;;6.08;80.89
64551;BME280;50945;44.472;-123.352;2023-03-04T00:14:40;100118.09;;;6.02;81.10
64551;BME280;50945;44.472;-123.352;2023-03-04T00:17:07;100123.84;;;5.99;81.88
64551;BME280;50945;44.472;-123.352;2023-03-04T00:19:33;100124.28;;;5.95;79.51
64551;BME280;50945;44.472;-123.352;2023-03-04T00:21:59;100114.75;;;5.90;80.33
64551;BME280;50945;44.472;-123.352;2023-03-04T00:24:26;100120.50;;;5.87;82.25
64551;BME280;50945;44.472;-123.352;2023-03-04T00:26:52;100106.19;;;5.77;82.39
64551;BME280;50945;44.472;-123.352;2023-03-04T00:29:18;100100.72;;;5.69;82.71
64551;BME280;50945;44.472;-123.352;2023-03-04T00:31:47;100096.78;;;5.63;83.02
64551;BME280;50945;44.472;-123.352;2023-03-04T00:34:13;100097.72;;;5.54;83.10
64551;BME280;50945;44.472;-123.352;2023-03-04T00:36:39;100085.81;;;5.47;83.55
64551;BME280;50945;44.472;-123.352;2023-03-04T00:39:05;100081.88;;;5.41;83.09
64551;BME280;50945;44.472;-123.352;2023-03-04T00:41:32;100066.25;;;5.35;82.50
64551;BME280;50945;44.472;-123.352;2023-03-04T00:43:58;100072.13;;;5.30;83.15
64551;BME280;50945;44.472;-123.352;2023-03-04T00:46:25;100074.31;;;5.27;83.58
64551;BME280;50945;44.472;-123.352;2023-03-04T00:48:51;100065.50;;;5.25;83.78
64551;BME280;50945;44.472;-123.352;2023-03-04T00:51:20;100057.38;;;5.25;83.38
64551;BME280;50945;44.472;-123.352;2023-03-04T00:53:47;100062.41;;;5.20;82.72
64551;BME280;50945;44.472;-123.352;2023-03-04T00:56:17;100054.44;;;5.18;82.91
64551;BME280;50945;44.472;-123.352;2023-03-04T00:58:43;100053.72;;;5.16;83.29
64551;BME280;50945;44.472;-123.352;2023-03-04T01:01:11;100056.06;;;5.11;83.48
64551;BME280;50945;44.472;-123.352;2023-03-04T01:03:39;100038.44;;;5.07;83.68
64551;BME280;50945;44.472;-123.352;2023-03-04T01:06:07;100034.50;;;5.01;83.04
64551;BME280;50945;44.472;-123.352;2023-03-04T01:08:33;100033.09;;;4.97;83.26
64551;BME280;50945;44.472;-123.352;2023-03-04T01:11:00;100027.13;;;4.93;83.66
64551;BME280;50945;44.472;-123.352;2023-03-04T01:13:26;100027.47;;;4.90;83.80
64551;BME280;50945;44.472;-123.352;2023-03-04T01:15:52;100022.34;;;4.87;83.76
64551;BME280;50945;44.472;-123.352;2023-03-04T01:18:18;100016.25;;;4.85;83.81
64551;BME280;50945;44.472;-123.352;2023-03-04T01:20:45;100021.81;;;4.84;83.84
64551;BME280;50945;44.472;-123.352;2023-03-04T01:23:11;100015.69;;;4.82;83.86
64551;BME280;50945;44.472;-123.352;2023-03-04T01:25:38;100017.22;;;4.84;84.48
64551;BME280;50945;44.472;-123.352;2023-03-04T01:28:04;100019.50;;;4.89;84.36
64551;BME280;50945;44.472;-123.352;2023-03-04T01:30:30;100016.94;;;4.87;84.10
64551;BME280;50945;44.472;-123.352;2023-03-04T01:32:57;100017.38;;;4.83;84.57
64551;BME280;50945;44.472;-123.352;2023-03-04T01:35:23;100010.59;;;4.79;84.67
64551;BME280;50945;44.472;-123.352;2023-03-04T01:37:50;100011.59;;;4.78;84.61
64551;BME280;50945;44.472;-123.352;2023-03-04T01:40:16;100006.16;;;4.78;85.02
64551;BME280;50945;44.472;-123.352;2023-03-04T01:42:43;100008.03;;;4.77;84.95
64551;BME280;50945;44.472;-123.352;2023-03-04T01:45:15;100001.78;;;4.76;85.08
64551;BME280;50945;44.472;-123.352;2023-03-04T01:47:44;100004.78;;;4.73;85.13
64551;BME280;50945;44.472;-123.352;2023-03-04T01:52:49;99998.69;;;4.71;85.41
64551;BME280;50945;44.472;-123.352;2023-03-04T01:55:18;99999.53;;;4.72;85.61
64551;BME280;50945;44.472;-123.352;2023-03-04T01:57:46;99990.84;;;4.68;86.31
64551;BME280;50945;44.472;-123.352;2023-03-04T02:00:29;99980.66;;;4.62;86.62
64551;BME280;50945;44.472;-123.352;2023-03-04T02:02:59;99980.44;;;4.55;86.51
64551;BME280;50945;44.472;-123.352;2023-03-04T02:05:26;99989.88;;;4.51;87.27
64551;BME280;50945;44.472;-123.352;2023-03-04T02:07:54;99988.59;;;4.46;87.67
64551;BME280;50945;44.472;-123.352;2023-03-04T02:10:21;99981.81;;;4.42;88.15
64551;BME280;50945;44.472;-123.352;2023-03-04T02:12:48;99976.84;;;4.37;88.83
64551;BME280;50945;44.472;-123.352;2023-03-04T02:15:15;99979.56;;;4.37;88.71
64551;BME280;50945;44.472;-123.352;2023-03-04T02:17:42;99978.03;;;4.34;89.49
64551;BME280;50945;44.472;-123.352;2023-03-04T02:20:18;99967.34;;;4.33;89.14
64551;BME280;50945;44.472;-123.352;2023-03-04T02:25:37;99960.16;;;4.24;89.09
64551;BME280;50945;44.472;-123.352;2023-03-04T02:28:04;99955.19;;;4.19;89.18
64551;BME280;50945;44.472;-123.352;2023-03-04T02:30:31;99960.94;;;4.16;89.62
64551;BME280;50945;44.472;-123.352;2023-03-04T02:32:57;99961.94;;;4.15;89.68
64551;BME280;50945;44.472;-123.352;2023-03-04T02:35:24;99958.81;;;4.10;89.73
64551;BME280;50945;44.472;-123.352;2023-03-04T02:37:50;99951.34;;;4.04;89.98
64551;BME280;50945;44.472;-123.352;2023-03-04T02:40:27;99951.78;;;3.99;90.25
64551;BME280;50945;44.472;-123.352;2023-03-04T02:42:56;99943.97;;;3.96;90.29
64551;BME280;50945;44.472;-123.352;2023-03-04T02:45:38;99939.88;;;3.92;90.35
64551;BME280;50945;44.472;-123.352;2023-03-04T02:48:06;99931.22;;;3.88;90.27
64551;BME280;50945;44.472;-123.352;2023-03-04T02:50:47;99925.09;;;3.86;91.05
64551;BME280;50945;44.472;-123.352;2023-03-04T02:53:15;99923.72;;;3.82;90.14
64551;BME280;50945;44.472;-123.352;2023-03-04T02:55:41;99921.59;;;3.76;92.04
64551;BME280;50945;44.472;-123.352;2023-03-04T02:58:09;99913.94;;;3.71;90.87
64551;BME280;50945;44.472;-123.352;2023-03-04T03:00:36;99912.53;;;3.67;91.65
64551;BME280;50945;44.472;-123.352;2023-03-04T03:03:02;99904.59;;;3.66;91.31
64551;BME280;50945;44.472;-123.352;2023-03-04T03:05:31;99903.75;;;3.65;90.98
64551;BME280;50945;44.472;-123.352;2023-03-04T03:07:57;99901.31;;;3.62;91.67
64551;BME280;50945;44.472;-123.352;2023-03-04T03:10:24;99904.91;;;3.63;91.85
64551;BME280;50945;44.472;-123.352;2023-03-04T03:12:54;99889.69;;;3.61;91.94
64551;BME280;50945;44.472;-123.352;2023-03-04T03:15:21;99892.38;;;3.61;92.30
64551;BME280;50945;44.472;-123.352;2023-03-04T03:17:47;99879.16;;;3.58;92.35
64551;BME280;50945;44.472;-123.352;2023-03-04T03:20:14;99872.38;;;3.54;91.88
64551;BME280;50945;44.472;-123.352;2023-03-04T03:22:41;99859.00;;;3.53;92.57
64551;BME280;50945;44.472;-123.352;2023-03-04T03:25:09;99852.06;;;3.50;93.55
64551;BME280;50945;44.472;-123.352;2023-03-04T03:27:36;99854.03;;;3.48;93.42
64551;BME280;50945;44.472;-123.352;2023-03-04T03:30:08;99852.63;;;3.44;93.56
64551;BME280;50945;44.472;-123.352;2023-03-04T03:32:34;99845.69;;;3.41;93.11
64551;BME280;50945;44.472;-123.352;2023-03-04T03:35:01;99844.13;;;3.39;94.09
64551;BME280;50945;44.472;-123.352;2023-03-04T03:37:27;99830.94;;;3.36;92.44
64551;BME280;50945;44.472;-123.352;2023-03-04T03:39:53;99835.63;;;3.34;92.99
64551;BME280;50945;44.472;-123.352;2023-03-04T03:42:20;99822.75;;;3.28;94.84
64551;BME280;50945;44.472;-123.352;2023-03-04T03:44:46;99827.59;;;3.24;93.85
64551;BME280;50945;44.472;-123.352;2023-03-04T03:47:12;99823.31;;;3.21;96.39
64551;BME280;50945;44.472;-123.352;2023-03-04T03:49:44;99818.94;;;3.20;93.88
64551;BME280;50945;44.472;-123.352;2023-03-04T03:52:10;99816.25;;;3.20;93.26
64551;BME280;50945;44.472;-123.352;2023-03-04T03:54:36;99807.28;;;3.20;93.74
64551;BME280;50945;44.472;-123.352;2023-03-04T03:57:03;99805.56;;;3.19;93.80
64551;BME280;50945;44.472;-123.352;2023-03-04T03:59:32;99798.31;;;3.19;93.21
64551;BME280;50945;44.472;-123.352;2023-03-04T04:01:58;99793.78;;;3.20;92.82
64551;BME280;50945;44.472;-123.352;2023-03-04T04:04:25;99795.31;;;3.22;92.59
64551;BME280;50945;44.472;-123.352;2023-03-04T04:06:51;99789.09;;;3.22;91.92
64551;BME280;50945;44.472;-123.352;2023-03-04T04:09:17;99792.63;;;3.22;92.22
64551;BME280;50945;44.472;-123.352;2023-03-04T04:11:44;99787.22;;;3.22;92.58
64551;BME280;50945;44.472;-123.352;2023-03-04T04:14:12;99788.22;;;3.21;93.50
64551;BME280;50945;44.472;-123.352;2023-03-04T04:16:39;99792.22;;;3.17;93.67
64551;BME280;50945;44.472;-123.352;2023-03-04T04:19:16;99791.53;;;3.15;92.62
64551;BME280;50945;44.472;-123.352;2023-03-04T04:21:45;99790.69;;;3.15;92.93
64551;BME280;50945;44.472;-123.352;2023-03-04T04:24:15;99790.13;;;3.11;93.45
64551;BME280;50945;44.472;-123.352;2023-03-04T04:26:42;99787.44;;;3.11;93.21
64551;BME280;50945;44.472;-123.352;2023-03-04T04:29:09;99792.16;;;3.09;93.15
64551;BME280;50945;44.472;-123.352;2023-03-04T04:31:38;99789.44;;;3.09;93.10
64551;BME280;50945;44.472;-123.352;2023-03-04T04:34:04;99781.16;;;3.11;93.11
64551;BME280;50945;44.472;-123.352;2023-03-04T04:36:31;99772.22;;;3.10;92.75
64551;BME280;50945;44.472;-123.352;2023-03-04T04:38:57;99779.34;;;3.11;93.25
64551;BME280;50945;44.472;-123.352;2023-03-04T04:41:26;99775.47;;;3.14;92.74
64551;BME280;50945;44.472;-123.352;2023-03-04T04:43:53;99769.06;;;3.15;92.78
64551;BME280;50945;44.472;-123.352;2023-03-04T04:46:20;99764.66;;;3.14;93.16
64551;BME280;50945;44.472;-123.352;2023-03-04T04:48:47;99759.94;;;3.16;94.02
64551;BME280;50945;44.472;-123.352;2023-03-04T04:51:13;99752.72;;;3.16;92.80
64551;BME280;50945;44.472;-123.352;2023-03-04T04:53:40;99743.75;;;3.16;93.09
64551;BME280;50945;44.472;-123.352;2023-03-04T04:56:15;99744.63;;;3.16;93.82
64551;BME280;50945;44.472;-123.352;2023-03-04T04:58:42;99738.50;;;3.14;92.69
64551;BME280;50945;44.472;-123.352;2023-03-04T05:01:09;99741.53;;;3.11;93.68
64551;BME280;50945;44.472;-123.352;2023-03-04T05:03:36;99725.31;;;3.11;93.28
64551;BME280;50945;44.472;-123.352;2023-03-04T05:06:03;99728.16;;;3.10;94.54
64551;BME280;50945;44.472;-123.352;2023-03-04T05:08:32;99720.22;;;3.08;95.47
64551;BME280;50945;44.472;-123.352;2023-03-04T05:10:59;99710.72;;;3.04;94.97
64551;BME280;50945;44.472;-123.352;2023-03-04T05:13:26;99707.47;;;3.00;94.17
64551;BME280;50945;44.472;-123.352;2023-03-04T05:15:53;99702.38;;;2.97;95.01
64551;BME280;50945;44.472;-123.352;2023-03-04T05:18:21;99698.97;;;2.95;93.87
64551;BME280;50945;44.472;-123.352;2023-03-04T05:20:52;99701.00;;;2.93;93.49
64551;BME280;50945;44.472;-123.352;2023-03-04T05:23:19;99699.28;;;2.92;93.45
64551;BME280;50945;44.472;-123.352;2023-03-04T05:25:46;99692.16;;;2.91;93.21
64551;BME280;50945;44.472;-123.352;2023-03-04T05:28:13;99695.88;;;2.90;93.56
64551;BME280;50945;44.472;-123.352;2023-03-04T05:30:41;99693.34;;;2.89;94.75
64551;BME280;50945;44.472;-123.352;2023-03-04T05:33:09;99694.16;;;2.89;94.75
64551;BME280;50945;44.472;-123.352;2023-03-04T05:35:36;99689.78;;;2.88;94.86
64551;BME280;50945;44.472;-123.352;2023-03-04T05:38:04;99683.38;;;2.89;94.47
64551;BME280;50945;44.472;-123.352;2023-03-04T05:40:31;99683.22;;;2.91;95.42
64551;BME280;50945;44.472;-123.352;2023-03-04T05:42:58;99691.19;;;2.92;94.16
64551;BME280;50945;44.472;-123.352;2023-03-04T05:45:25;99684.59;;;2.95;94.41
64551;BME280;50945;44.472;-123.352;2023-03-04T05:47:51;99676.50;;;2.95;95.00
64551;BME280;50945;44.472;-123.352;2023-03-04T05:50:19;99670.81;;;2.98;94.06
64551;BME280;50945;44.472;-123.352;2023-03-04T05:52:49;99667.13;;;2.99;93.94
64551;BME280;50945;44.472;-123.352;2023-03-04T05:55:16;99654.47;;;2.99;93.68
64551;BME280;50945;44.472;-123.352;2023-03-04T05:57:43;99654.47;;;2.99;94.19
64551;BME280;50945;44.472;-123.352;2023-03-04T06:00:10;99653.63;;;2.99;95.05
64551;BME280;50945;44.472;-123.352;2023-03-04T06:02:38;99660.69;;;3.00;94.58
64551;BME280;50945;44.472;-123.352;2023-03-04T06:05:06;99644.66;;;2.98;95.11
64551;BME280;50945;44.472;-123.352;2023-03-04T06:07:33;99646.66;;;2.96;96.71
64551;BME280;50945;44.472;-123.352;2023-03-04T06:10:00;99642.13;;;2.97;96.05
64551;BME280;50945;44.472;-123.352;2023-03-04T06:12:26;99631.47;;;2.95;94.29
64551;BME280;50945;44.472;-123.352;2023-03-04T06:14:54;99628.94;;;2.94;95.41
64551;BME280;50945;44.472;-123.352;2023-03-04T06:17:20;99619.13;;;2.93;95.26
64551;BME280;50945;44.472;-123.352;2023-03-04T06:19:47;99613.88;;;2.91;95.29
64551;BME280;50945;44.472;-123.352;2023-03-04T06:22:13;99606.63;;;2.92;96.62
64551;BME280;50945;44.472;-123.352;2023-03-04T06:24:39;99596.00;;;2.90;96.06
64551;BME280;50945;44.472;-123.352;2023-03-04T06:27:06;99592.44;;;2.90;95.27
64551;BME280;50945;44.472;-123.352;2023-03-04T06:29:32;99588.88;;;2.89;95.60
64551;BME280;50945;44.472;-123.352;2023-03-04T06:31:59;99591.56;;;2.89;95.10
64551;BME280;50945;44.472;-123.352;2023-03-04T06:34:25;99573.69;;;2.88;95.11
64551;BME280;50945;44.472;-123.352;2023-03-04T06:36:55;99586.03;;;2.91;95.47
64551;BME280;50945;44.472;-123.352;2023-03-04T06:39:22;99578.94;;;2.90;96.17
64551;BME280;50945;44.472;-123.352;2023-03-04T06:41:48;99585.19;;;2.90;95.70
64551;BME280;50945;44.472;-123.352;2023-03-04T06:44:14;99568.31;;;2.88;96.25
64551;BME280;50945;44.472;-123.352;2023-03-04T06:46:41;99571.00;;;2.88;95.26
64551;BME280;50945;44.472;-123.352;2023-03-04T06:49:07;99575.53;;;2.88;96.40
64551;BME280;50945;44.472;-123.352;2023-03-04T06:51:33;99562.03;;;2.88;95.90
64551;BME280;50945;44.472;-123.352;2023-03-04T06:54:00;99554.66;;;2.90;94.86
64551;BME280;50945;44.472;-123.352;2023-03-04T06:56:26;99543.66;;;2.91;95.30
64551;BME280;50945;44.472;-123.352;2023-03-04T06:58:53;99542.69;;;2.92;95.18
64551;BME280;50945;44.472;-123.352;2023-03-04T07:01:24;99546.06;;;2.94;95.55
64551;BME280;50945;44.472;-123.352;2023-03-04T07:03:52;99537.13;;;2.94;95.63
64551;BME280;50945;44.472;-123.352;2023-03-04T07:06:21;99530.72;;;2.95;94.90
64551;BME280;50945;44.472;-123.352;2023-03-04T07:08:48;99526.19;;;2.95;94.79
64551;BME280;50945;44.472;-123.352;2023-03-04T07:11:16;99527.00;;;2.96;96.16
64551;BME280;50945;44.472;-123.352;2023-03-04T07:13:43;99511.66;;;2.96;94.72
64551;BME280;50945;44.472;-123.352;2023-03-04T07:16:13;99502.41;;;2.99;94.59
64551;BME280;50945;44.472;-123.352;2023-03-04T07:18:40;99488.75;;;3.00;94.84
64551;BME280;50945;44.472;-123.352;2023-03-04T07:21:07;99492.97;;;3.03;94.08
64551;BME280;50945;44.472;-123.352;2023-03-04T07:23:34;99483.03;;;3.03;94.39
64551;BME280;50945;44.472;-123.352;2023-03-04T07:26:01;99472.06;;;3.05;94.28
64551;BME280;50945;44.472;-123.352;2023-03-04T07:28:27;99471.22;;;3.04;93.83
64551;BME280;50945;44.472;-123.352;2023-03-04T07:30:56;99460.59;;;3.03;93.64
64551;BME280;50945;44.472;-123.352;2023-03-04T07:33:22;99460.59;;;3.03;93.60
64551;BME280;50945;44.472;-123.352;2023-03-04T07:35:58;99453.47;;;3.02;94.16
64551;BME280;50945;44.472;-123.352;2023-03-04T07:38:24;99450.97;;;3.00;93.38
64551;BME280;50945;44.472;-123.352;2023-03-04T07:40:57;99445.72;;;2.99;93.40
64551;BME280;50945;44.472;-123.352;2023-03-04T07:43:24;99444.84;;;2.98;93.34
64551;BME280;50945;44.472;-123.352;2023-03-04T07:45:50;99439.44;;;2.98;92.89
64551;BME280;50945;44.472;-123.352;2023-03-04T07:48:16;99444.84;;;2.98;93.50
64551;BME280;50945;44.472;-123.352;2023-03-04T07:50:43;99445.03;;;2.97;93.54
64551;BME280;50945;44.472;-123.352;2023-03-04T07:53:09;99432.38;;;2.97;93.53
64551;BME280;50945;44.472;-123.352;2023-03-04T07:55:35;99431.53;;;2.97;92.77
64551;BME280;50945;44.472;-123.352;2023-03-04T07:58:02;99426.13;;;2.97;93.05
64551;BME280;50945;44.472;-123.352;2023-03-04T08:00:28;99412.78;;;2.95;92.91
64551;BME280;50945;44.472;-123.352;2023-03-04T08:02:54;99405.69;;;2.94;92.76
64551;BME280;50945;44.472;-123.352;2023-03-04T08:05:21;99398.59;;;2.93;93.12
64551;BME280;50945;44.472;-123.352;2023-03-04T08:07:47;99406.69;;;2.93;92.93
64551;BME280;50945;44.472;-123.352;2023-03-04T08:10:13;99398.41;;;2.95;93.20
64551;BME280;50945;44.472;-123.352;2023-03-04T08:12:39;99399.28;;;2.95;92.72
64551;BME280;50945;44.472;-123.352;2023-03-04T08:15:06;99392.03;;;2.96;93.09
64551;BME280;50945;44.472;-123.352;2023-03-04T08:17:33;99397.56;;;2.94;92.93
64551;BME280;50945;44.472;-123.352;2023-03-04T08:19:59;99388.63;;;2.94;93.37
64551;BME280;50945;44.472;-123.352;2023-03-04T08:22:25;99387.78;;;2.93;93.29
64551;BME280;50945;44.472;-123.352;2023-03-04T08:24:51;99386.09;;;2.92;93.64
64551;BME280;50945;44.472;-123.352;2023-03-04T08:27:18;99377.16;;;2.92;93.74
64551;BME280;50945;44.472;-123.352;2023-03-04T08:29:44;99356.56;;;2.91;93.42
64551;BME280;50945;44.472;-123.352;2023-03-04T08:32:10;99372.91;;;2.89;94.04
64551;BME280;50945;44.472;-123.352;2023-03-04T08:34:38;99360.59;;;2.87;93.99
64551;BME280;50945;44.472;-123.352;2023-03-04T08:37:05;99349.63;;;2.88;94.04
64551;BME280;50945;44.472;-123.352;2023-03-04T08:39:31;99355.03;;;2.88;94.14
64551;BME280;50945;44.472;-123.352;2023-03-04T08:42:00;99344.22;;;2.88;93.72
64551;BME280;50945;44.472;-123.352;2023-03-04T08:44:26;99346.94;;;2.88;93.73
64551;BME280;50945;44.472;-123.352;2023-03-04T08:46:52;99350.63;;;2.87;94.17
64551;BME280;50945;44.472;-123.352;2023-03-04T08:49:19;99344.53;;;2.85;93.97
64551;BME280;50945;44.472;-123.352;2023-03-04T08:51:45;99339.00;;;2.87;93.79
64551;BME280;50945;44.472;-123.352;2023-03-04T08:54:11;99337.97;;;2.88;94.14
64551;BME280;50945;44.472;-123.352;2023-03-04T08:56:39;99315.38;;;2.89;93.58
64551;BME280;50945;44.472;-123.352;2023-03-04T08:59:06;99310.13;;;2.87;93.39
64551;BME280;50945;44.472;-123.352;2023-03-04T09:01:32;99311.16;;;2.86;93.68
64551;BME280;50945;44.472;-123.352;2023-03-04T09:03:58;99299.34;;;2.87;93.10
64551;BME280;50945;44.472;-123.352;2023-03-04T09:06:24;99282.31;;;2.87;93.30
64551;BME280;50945;44.472;-123.352;2023-03-04T09:08:51;99282.63;;;2.83;93.20
64551;BME280;50945;44.472;-123.352;2023-03-04T09:11:17;99277.69;;;2.79;92.83
64551;BME280;50945;44.472;-123.352;2023-03-04T09:13:43;99274.31;;;2.77;93.27
64551;BME280;50945;44.472;-123.352;2023-03-04T09:16:12;99266.22;;;2.77;93.20
64551;BME280;50945;44.472;-123.352;2023-03-04T09:18:40;99267.91;;;2.78;93.44
64551;BME280;50945;44.472;-123.352;2023-03-04T09:21:06;99270.47;;;2.79;93.43
64551;BME280;50945;44.472;-123.352;2023-03-04T09:23:35;99259.66;;;2.79;93.12
64551;BME280;50945;44.472;-123.352;2023-03-04T09:26:16;99255.78;;;2.82;93.09
64551;BME280;50945;44.472;-123.352;2023-03-04T09:28:44;99244.81;;;2.83;92.96
64551;BME280;50945;44.472;-123.352;2023-03-04T09:31:14;99241.13;;;2.84;93.30
64551;BME280;50945;44.472;-123.352;2023-03-04T09:33:40;99234.03;;;2.83;92.82
64551;BME280;50945;44.472;-123.352;2023-03-04T09:36:09;99222.25;;;2.84;93.01
64551;BME280;50945;44.472;-123.352;2023-03-04T09:38:36;99214.97;;;2.85;91.97
64551;BME280;50945;44.472;-123.352;2023-03-04T09:41:06;99203.00;;;2.88;91.03
64551;BME280;50945;44.472;-123.352;2023-03-04T09:43:34;99203.69;;;2.90;90.83
64551;BME280;50945;44.472;-123.352;2023-03-04T09:46:07;99207.06;;;2.92;90.52
64551;BME280;50945;44.472;-123.352;2023-03-04T09:48:42;99205.06;;;2.94;89.69
64551;BME280;50945;44.472;-123.352;2023-03-04T09:59:46;99186.00;;;2.95;89.16
64551;BME280;50945;44.472;-123.352;2023-03-04T10:02:43;99176.03;;;2.96;89.17
64551;BME280;50945;44.472;-123.352;2023-03-04T10:05:14;99181.28;;;2.97;89.17
64551;BME280;50945;44.472;-123.352;2023-03-04T10:07:47;99166.75;;;2.98;89.14
64551;BME280;50945;44.472;-123.352;2023-03-04T10:10:30;99166.75;;;2.98;88.87
64551;BME280;50945;44.472;-123.352;2023-03-04T10:12:59;99166.59;;;3.00;88.45
64551;BME280;50945;44.472;-123.352;2023-03-04T10:15:42;99145.50;;;3.03;88.65
64551;BME280;50945;44.472;-123.352;2023-03-04T10:18:23;99143.47;;;3.05;88.26
64551;BME280;50945;44.472;-123.352;2023-03-04T10:20:56;99136.06;;;3.08;88.28
64551;BME280;50945;44.472;-123.352;2023-03-04T10:23:27;99128.66;;;3.10;87.86
64551;BME280;50945;44.472;-123.352;2023-03-04T10:25:54;99124.91;;;3.11;87.83
64551;BME280;50945;44.472;-123.352;2023-03-04T10:28:24;99107.03;;;3.10;86.51
64551;BME280;50945;44.472;-123.352;2023-03-04T10:33:38;99092.50;;;3.11;87.10
64551;BME280;50945;44.472;-123.352;2023-03-04T10:38:53;99074.47;;;3.11;86.70
64551;BME280;50945;44.472;-123.352;2023-03-04T10:41:22;99067.53;;;3.09;86.48
64551;BME280;50945;44.472;-123.352;2023-03-04T10:44:03;99064.84;;;3.09;86.27
64551;BME280;50945;44.472;-123.352;2023-03-04T10:46:31;99064.69;;;3.10;86.51
64551;BME280;50945;44.472;-123.352;2023-03-04T10:48:57;99053.03;;;3.10;85.38
64551;BME280;50945;44.472;-123.352;2023-03-04T10:51:28;99042.25;;;3.10;86.92
64551;BME280;50945;44.472;-123.352;2023-03-04T10:56:40;99021.81;;;3.07;86.98
64551;BME280;50945;44.472;-123.352;2023-03-04T11:02:24;99006.78;;;3.04;86.94
64551;BME280;50945;44.472;-123.352;2023-03-04T11:04:54;99000.56;;;3.04;87.07
64551;BME280;50945;44.472;-123.352;2023-03-04T11:07:22;98999.69;;;3.03;87.23
64551;BME280;50945;44.472;-123.352;2023-03-04T11:09:49;98989.94;;;3.02;86.93
64551;BME280;50945;44.472;-123.352;2023-03-04T11:12:18;98985.53;;;3.01;87.43
64551;BME280;50945;44.472;-123.352;2023-03-04T11:14:50;98980.47;;;2.98;87.46
64551;BME280;50945;44.472;-123.352;2023-03-04T11:17:25;98971.53;;;2.98;87.88
64551;BME280;50945;44.472;-123.352;2023-03-04T11:20:15;98967.31;;;2.95;87.52
64551;BME280;50945;44.472;-123.352;2023-03-04T11:22:44;98959.22;;;2.95;87.72
64551;BME280;50945;44.472;-123.352;2023-03-04T11:25:31;98941.31;;;2.94;87.62
64551;BME280;50945;44.472;-123.352;2023-03-04T11:28:22;98939.66;;;2.93;87.58
64551;BME280;50945;44.472;-123.352;2023-03-04T11:30:55;98936.97;;;2.93;87.73
64551;BME280;50945;44.472;-123.352;2023-03-04T11:33:32;98931.56;;;2.93;87.11
64551;BME280;50945;44.472;-123.352;2023-03-04T11:39:53;98917.88;;;2.95;86.72
64551;BME280;50945;44.472;-123.352;2023-03-04T11:44:56;98907.75;;;2.97;85.88
64551;BME280;50945;44.472;-123.352;2023-03-04T11:47:49;98896.59;;;3.00;85.78
64551;BME280;50945;44.472;-123.352;2023-03-04T11:53:51;98884.25;;;3.05;85.50
64551;BME280;50945;44.472;-123.352;2023-03-04T11:56:23;98873.13;;;3.09;85.21
64551;BME280;50945;44.472;-123.352;2023-03-04T12:07:34;98860.28;;;3.11;84.34
64551;BME280;50945;44.472;-123.352;2023-03-04T12:18:43;98828.38;;;3.14;83.75
64551;BME280;50945;44.472;-123.352;2023-03-04T12:24:03;98808.66;;;3.14;84.17
64551;BME280;50945;44.472;-123.352;2023-03-04T12:40:58;98776.22;;;3.22;82.61
64551;BME280;50945;44.472;-123.352;2023-03-04T12:43:35;98782.28;;;3.24;83.32
64551;BME280;50945;44.472;-123.352;2023-03-04T12:57:02;98754.06;;;3.27;82.27
64551;BME280;50945;44.472;-123.352;2023-03-04T12:59:36;98747.81;;;3.26;82.40
64551;BME280;50945;44.472;-123.352;2023-03-04T13:10:12;98758.47;;;3.28;81.82
64551;BME280;50945;44.472;-123.352;2023-03-04T13:12:55;98736.03;;;3.27;82.32
64551;BME280;50945;44.472;-123.352;2023-03-04T13:15:34;98734.16;;;3.28;82.60
64551;BME280;50945;44.472;-123.352;2023-03-04T13:20:41;98731.63;;;3.26;82.20
64551;BME280;50945;44.472;-123.352;2023-03-04T13:26:05;98723.88;;;3.23;82.82
64551;BME280;50945;44.472;-123.352;2023-03-04T13:28:34;98714.94;;;3.22;82.99
64551;BME280;50945;44.472;-123.352;2023-03-04T13:31:11;98709.22;;;3.17;82.46
64551;BME280;50945;44.472;-123.352;2023-03-04T13:33:38;98704.00;;;3.16;83.11
64551;BME280;50945;44.472;-123.352;2023-03-04T13:36:28;98694.41;;;3.13;82.91
64551;BME280;50945;44.472;-123.352;2023-03-04T13:39:23;98689.53;;;3.09;82.64
64551;BME280;50945;44.472;-123.352;2023-03-04T13:41:51;98680.59;;;3.08;83.67
64551;BME280;50945;44.472;-123.352;2023-03-04T13:47:20;98670.78;;;3.07;83.99
64551;BME280;50945;44.472;-123.352;2023-03-04T13:49:47;98673.66;;;3.05;84.07
64551;BME280;50945;44.472;-123.352;2023-03-04T13:52:39;98665.56;;;3.05;84.05
64551;BME280;50945;44.472;-123.352;2023-03-04T13:58:23;98663.38;;;3.09;83.72
64551;BME280;50945;44.472;-123.352;2023-03-04T14:00:53;98663.00;;;3.12;83.80
64551;BME280;50945;44.472;-123.352;2023-03-04T14:03:23;98666.38;;;3.14;83.46
64551;BME280;50945;44.472;-123.352;2023-03-04T14:06:16;98663.31;;;3.17;83.32
64551;BME280;50945;44.472;-123.352;2023-03-04T14:08:44;98676.34;;;3.14;83.59
64551;BME280;50945;44.472;-123.352;2023-03-04T14:11:35;98664.03;;;3.11;83.60
64551;BME280;50945;44.472;-123.352;2023-03-04T14:14:11;98661.53;;;3.10;84.00
64551;BME280;50945;44.472;-123.352;2023-03-04T14:17:26;98656.47;;;3.07;84.62
64551;BME280;50945;44.472;-123.352;2023-03-04T14:19:53;98661.22;;;3.04;84.84
64551;BME280;50945;44.472;-123.352;2023-03-04T14:22:28;98641.47;;;3.04;84.62
64551;BME280;50945;44.472;-123.352;2023-03-04T14:25:05;98641.00;;;3.00;85.07
64551;BME280;50945;44.472;-123.352;2023-03-04T14:27:34;98640.13;;;3.00;85.71